MET'MAP v2.0
soon released !

Expected late october,
this new version will be
more efficient, smarter,
and hosted on a brand new
server x3 powerfull...
...and still free !


Not compatible ?
Try the mobile version !

LOG IN : | Subscribe | Disclaimer | Who is Orbifly ? |
ICAO code :
Legend : VFR Marginal VFR IFR Intensive IFR Very Intensive IFR
Visi :
Ceiling :
>= 8 km
>= 3000ft
5 to 8 km
1000 to 3000 ft
1500m to 5 km
500 to 1000 ft
800 to 1500m
200 to 500 ft
< 800m
< 200 ft

METAR - ETNL Rostock Laage - 05 Jun 2020 06:03 UTC - Data Source NOAA   


- Airport Elevation : 138 ft
- IATA code : RLG
- No reported NOTAMs.


ETNL - Rostock Laage

Latest METAR recorded : 2015/08/11 07:20 ETNL 110720Z 08007KT 9999 SCT007 BKN180 20/18 Q1015 BLU BLU
TAF TAF ETNL
Valid from the 04 at 23:00 until the 05 at 11:00 UTC


042200Z 0423/0511 24010KT 9999 NSW SCT020 BKN040
TEMPO 0423/0502 25015KT 5000 SHRA BKN010TCU
TEMPO 0502/0511 25007KT 8000 NSW BKN008 BY ETGL

Source NOAA


MET'MAP, your aeronautical weather chart ! - Copyright ORBIFLY December 2007

Programming & Development : Alexandra Zaïnal
Co-Developer : Marc-Olivier Méhu
Technical & hardware support : Manuel Goepfert
Concept & Financing : Baudouin d'Aumeries